Time;durP1;ratioP1;P1;durP2;ratioP2;P2;SDS_P1;SDS_P2;PMS_P1;PMS_P2;Temp;Humidity;BMP_temperature;BMP_pressure;BME280_temperature;BME280_humidity;BME280_pressure;Samples;Min_cycle;Max_cycle;Signal;HPM_P1;HPM_P2
2022/04/16 00:00:15;;;;;;;24.88;16.20;;;8.30;99.90;;;;;;4980168;28;20046;-55
2022/04/16 00:02:42;;;;;;;24.15;15.93;;;8.20;99.90;;;;;;4962093;28;20136;-58
2022/04/16 00:05:08;;;;;;;22.48;16.00;;;8.20;99.90;;;;;;4978703;28;20050;-57
2022/04/16 00:07:34;;;;;;;22.05;15.23;;;8.10;99.90;;;;;;4978402;28;20337;-57
2022/04/16 00:10:00;;;;;;;23.75;15.23;;;8.10;99.90;;;;;;4964562;28;20540;-56
2022/04/16 00:12:27;;;;;;;23.60;16.02;;;8.00;99.90;;;;;;4978870;28;20061;-57
2022/04/16 00:14:54;;;;;;;21.10;15.40;;;8.00;99.90;;;;;;4977836;28;20060;-57
2022/04/16 00:17:20;;;;;;;22.92;15.80;;;7.90;99.90;;;;;;4979366;28;20058;-55
2022/04/16 00:19:46;;;;;;;23.02;15.60;;;7.90;99.90;;;;;;4981004;28;20530;-54
2022/04/16 00:22:12;;;;;;;19.65;14.98;;;7.80;99.90;;;;;;4962828;28;20157;-57
2022/04/16 00:24:42;;;;;;;20.70;15.02;;;7.80;99.90;;;;;;4981215;28;20516;-55
2022/04/16 00:27:11;;;;;;;23.88;16.60;;;7.70;99.90;;;;;;4976695;28;20046;-56
2022/04/16 00:29:38;;;;;;;21.80;15.10;;;7.70;99.90;;;;;;4978525;28;20109;-55
2022/04/16 00:32:05;;;;;;;24.33;16.38;;;7.70;99.90;;;;;;4977996;28;20073;-56
2022/04/16 00:34:32;;;;;;;26.15;15.27;;;7.70;99.90;;;;;;4962068;28;20064;-57
2022/04/16 00:36:58;;;;;;;24.00;16.50;;;7.60;99.90;;;;;;4976422;28;20049;-55
2022/04/16 00:39:24;;;;;;;23.95;16.25;;;7.60;99.90;;;;;;4982010;28;20041;-54
2022/04/16 00:41:50;;;;;;;25.45;16.77;;;7.50;99.90;;;;;;4984128;28;20054;-57
2022/04/16 00:44:19;;;;;;;25.10;16.88;;;7.50;99.90;;;;;;4981950;28;20045;-56
2022/04/16 00:46:45;;;;;;;21.83;16.40;;;7.50;99.90;;;;;;4963605;28;20404;-55
2022/04/16 00:49:11;;;;;;;21.08;15.52;;;7.40;99.90;;;;;;4978539;28;20116;-55
2022/04/16 00:51:39;;;;;;;21.63;15.82;;;7.40;99.90;;;;;;4965531;28;20159;-57
2022/04/16 00:54:05;;;;;;;27.65;16.85;;;7.40;99.90;;;;;;4981125;28;20046;-57
2022/04/16 00:56:31;;;;;;;23.98;16.20;;;7.40;99.90;;;;;;4981166;28;21965;-55
2022/04/16 00:58:58;;;;;;;24.38;17.60;;;7.40;99.90;;;;;;4979521;28;20718;-56
2022/04/16 01:01:24;;;;;;;24.33;17.95;;;7.40;99.90;;;;;;4953283;28;20054;-57
2022/04/16 01:03:50;;;;;;;23.70;17.25;;;7.40;99.90;;;;;;4984036;28;20050;-57
2022/04/16 01:06:17;;;;;;;26.77;17.67;;;7.40;99.90;;;;;;4981247;28;20069;-55
2022/04/16 01:08:44;;;;;;;25.85;18.65;;;7.40;99.90;;;;;;4981991;28;20049;-56
2022/04/16 01:11:12;;;;;;;25.75;17.80;;;7.30;99.90;;;;;;4977718;28;20543;-56
2022/04/16 01:13:38;;;;;;;23.85;17.60;;;7.30;99.90;;;;;;4962638;28;20061;-56
2022/04/16 01:16:05;;;;;;;25.02;18.38;;;7.30;99.90;;;;;;4980469;28;20495;-57
2022/04/16 01:18:32;;;;;;;24.05;17.85;;;7.30;99.90;;;;;;4979560;28;20152;-55
2022/04/16 01:21:00;;;;;;;30.98;19.00;;;7.30;99.90;;;;;;4961446;28;20130;-56
2022/04/16 01:23:26;;;;;;;25.25;16.77;;;7.30;99.90;;;;;;4979085;28;20145;-57
2022/04/16 01:25:52;;;;;;;24.85;17.48;;;7.30;99.90;;;;;;4981472;28;20516;-57
2022/04/16 01:28:18;;;;;;;27.27;17.98;;;7.30;99.90;;;;;;4979854;28;20096;-57
2022/04/16 01:30:44;;;;;;;25.83;17.98;;;7.20;99.90;;;;;;4978345;28;20804;-56
2022/04/16 01:33:10;;;;;;;28.88;18.33;;;7.20;99.90;;;;;;4974101;28;20487;-57
2022/04/16 01:35:37;;;;;;;22.15;17.02;;;7.20;99.90;;;;;;4979254;28;20050;-54
2022/04/16 01:38:09;;;;;;;24.27;17.23;;;7.10;99.90;;;;;;4962384;28;20600;-54
2022/04/16 01:40:35;;;;;;;27.20;18.38;;;7.20;99.90;;;;;;4980680;28;20129;-56
2022/04/16 01:43:01;;;;;;;26.25;17.15;;;7.10;99.90;;;;;;4976660;28;20068;-56
2022/04/16 01:45:27;;;;;;;29.73;19.05;;;7.10;99.90;;;;;;4978281;28;20503;-57
2022/04/16 01:47:53;;;;;;;26.23;17.77;;;7.00;99.90;;;;;;4977561;28;20041;-53
2022/04/16 01:50:19;;;;;;;25.70;17.02;;;7.00;99.90;;;;;;4979728;28;20602;-56
2022/04/16 01:52:46;;;;;;;23.90;17.80;;;7.00;99.90;;;;;;4977673;28;20045;-54
2022/04/16 01:55:16;;;;;;;25.08;17.92;;;7.00;99.90;;;;;;4978907;28;20050;-56
2022/04/16 01:57:42;;;;;;;26.27;18.05;;;6.90;99.90;;;;;;4979643;28;20165;-57
2022/04/16 02:00:11;;;;;;;23.85;16.90;;;6.90;99.90;;;;;;4977572;28;20050;-55
2022/04/16 02:02:37;;;;;;;25.63;18.67;;;6.80;99.90;;;;;;4976844;28;20172;-57
2022/04/16 02:05:07;;;;;;;23.73;17.45;;;6.80;99.90;;;;;;4979097;28;20613;-55
2022/04/16 02:07:33;;;;;;;25.23;17.10;;;6.80;99.90;;;;;;4977078;28;20095;-56
2022/04/16 02:10:00;;;;;;;24.05;16.90;;;6.70;99.90;;;;;;4978265;28;20136;-56
2022/04/16 02:12:26;;;;;;;27.48;17.83;;;6.70;99.90;;;;;;4978306;28;20085;-55
2022/04/16 02:14:52;;;;;;;26.38;17.55;;;6.70;99.90;;;;;;4980828;28;20474;-56
2022/04/16 02:17:18;;;;;;;23.73;17.60;;;6.70;99.90;;;;;;4978290;28;20050;-53
2022/04/16 02:19:44;;;;;;;28.05;18.92;;;6.60;99.90;;;;;;4977515;28;20523;-56
2022/04/16 02:22:11;;;;;;;26.95;17.42;;;6.60;99.90;;;;;;4976404;28;20505;-55
2022/04/16 02:24:38;;;;;;;28.17;18.85;;;6.60;99.90;;;;;;4976202;28;20077;-56
2022/04/16 02:27:04;;;;;;;24.58;18.52;;;6.60;99.90;;;;;;4978854;28;20127;-54
2022/04/16 02:29:31;;;;;;;26.75;19.00;;;6.60;99.90;;;;;;4980553;28;20538;-55
2022/04/16 02:31:57;;;;;;;32.42;19.70;;;6.60;99.90;;;;;;4979589;28;20184;-56
2022/04/16 02:34:23;;;;;;;31.73;21.55;;;6.60;99.90;;;;;;4980917;28;20072;-56
2022/04/16 02:36:49;;;;;;;29.13;20.77;;;6.50;99.90;;;;;;4967673;28;20065;-55
2022/04/16 02:39:15;;;;;;;35.33;22.13;;;6.60;99.90;;;;;;4982722;28;20628;-57
2022/04/16 02:41:42;;;;;;;34.03;21.95;;;6.60;99.90;;;;;;4978394;28;20081;-55
2022/04/16 02:47:05;;;;;;;33.78;22.58;;;6.60;99.90;;;;;;4981305;28;20053;-55
2022/04/16 02:47:05;;;;;;;34.67;23.48;;;6.60;99.90;;;;;;4967485;28;20050;-54
2022/04/16 02:49:34;;;;;;;36.53;23.73;;;6.70;99.90;;;;;;4983843;28;20085;-56
2022/04/16 02:52:00;;;;;;;32.97;22.10;;;6.80;99.90;;;;;;4981112;28;20411;-55
2022/04/16 02:54:26;;;;;;;31.60;22.50;;;6.80;99.90;;;;;;4983720;28;20152;-54
2022/04/16 02:56:53;;;;;;;34.22;23.40;;;6.90;99.90;;;;;;4965720;28;20045;-56
2022/04/16 02:59:19;;;;;;;35.33;23.45;;;7.00;99.90;;;;;;4980880;28;20052;-54
2022/04/16 03:01:45;;;;;;;34.47;23.80;;;7.00;99.90;;;;;;4981084;28;20675;-57
2022/04/16 03:04:10;;;;;;;37.58;24.48;;;7.10;99.90;;;;;;4963775;28;20042;-56
2022/04/16 03:06:37;;;;;;;36.58;23.33;;;7.20;99.90;;;;;;4960974;28;20500;-56
2022/04/16 03:09:03;;;;;;;34.78;24.23;;;7.20;99.90;;;;;;4980500;28;20045;-56
2022/04/16 03:11:28;;;;;;;37.42;24.05;;;7.30;99.90;;;;;;4980335;28;20057;-56
2022/04/16 03:13:54;;;;;;;36.72;24.52;;;7.30;99.90;;;;;;4982627;28;20041;-57
2022/04/16 03:19:05;;;;;;;37.08;25.65;;;7.50;99.90;;;;;;4980812;28;20050;-52
2022/04/16 03:21:31;;;;;;;33.65;24.85;;;7.60;99.90;;;;;;4962366;28;20046;-53
2022/04/16 03:23:57;;;;;;;35.00;25.38;;;7.50;99.90;;;;;;4981315;28;20057;-54
2022/04/16 03:26:23;;;;;;;36.83;26.25;;;7.60;99.90;;;;;;4982334;28;20492;-57
2022/04/16 03:28:49;;;;;;;39.30;27.23;;;7.60;99.90;;;;;;4980190;28;20128;-54
2022/04/16 03:31:14;;;;;;;41.30;27.17;;;7.60;99.90;;;;;;4962040;28;20057;-56
2022/04/16 03:33:40;;;;;;;40.80;26.88;;;7.60;99.90;;;;;;4982467;28;20080;-55
2022/04/16 03:36:07;;;;;;;39.08;25.90;;;7.70;99.90;;;;;;4964787;28;20246;-56
2022/04/16 03:38:33;;;;;;;39.75;26.08;;;7.80;99.90;;;;;;4963889;28;20882;-55
2022/04/16 03:40:59;;;;;;;38.90;26.58;;;7.70;99.90;;;;;;4978262;28;20141;-55
2022/04/16 03:43:29;;;;;;;38.17;26.65;;;7.80;99.90;;;;;;4978814;28;20540;-56
2022/04/16 03:45:55;;;;;;;37.53;27.08;;;7.80;99.90;;;;;;4981428;28;20056;-57
2022/04/16 03:48:21;;;;;;;38.05;27.48;;;7.80;99.90;;;;;;4979523;28;20045;-55
2022/04/16 03:50:47;;;;;;;37.92;27.08;;;7.80;99.90;;;;;;4980294;28;20046;-55
2022/04/16 03:53:13;;;;;;;40.33;27.77;;;7.80;99.90;;;;;;4980353;28;20046;-55
2022/04/16 04:01:08;;;;;;;45.95;29.48;;;7.80;99.90;;;;;;4984928;28;20564;-56
2022/04/16 04:03:34;;;;;;;46.13;29.13;;;7.70;99.90;;;;;;4960773;28;20045;-56
2022/04/16 04:06:01;;;;;;;43.42;29.58;;;7.70;99.90;;;;;;4988734;28;20580;-55
2022/04/16 04:08:27;;;;;;;44.00;29.63;;;7.70;99.90;;;;;;4988214;28;20050;-54
2022/04/16 04:10:53;;;;;;;47.17;31.27;;;7.70;99.90;;;;;;4987298;28;20181;-56
2022/04/16 04:13:20;;;;;;;43.78;29.48;;;7.70;99.90;;;;;;4984820;28;20038;-55
2022/04/16 04:15:46;;;;;;;46.10;29.98;;;7.70;99.90;;;;;;4980707;28;20562;-53
2022/04/16 04:18:12;;;;;;;46.03;31.48;;;7.70;99.90;;;;;;4978913;28;20363;-55
2022/04/16 04:20:38;;;;;;;45.72;31.13;;;7.60;99.90;;;;;;4979324;28;20061;-55
2022/04/16 04:23:04;;;;;;;45.10;30.02;;;7.60;99.90;;;;;;4975246;28;20054;-57
2022/04/16 04:25:30;;;;;;;44.72;31.33;;;7.60;99.90;;;;;;4960023;28;21091;-55
2022/04/16 04:27:56;;;;;;;48.35;31.38;;;7.60;99.90;;;;;;4977440;28;20050;-55
2022/04/16 04:30:22;;;;;;;46.10;31.33;;;7.60;99.90;;;;;;4962849;28;20046;-54
2022/04/16 04:32:49;;;;;;;51.55;32.58;;;7.60;99.90;;;;;;4967536;28;20793;-57
2022/04/16 04:35:15;;;;;;;49.80;32.63;;;7.60;99.90;;;;;;4975776;28;21241;-55
2022/04/16 04:37:41;;;;;;;48.03;31.95;;;7.50;99.90;;;;;;4980259;28;20150;-54
2022/04/16 04:40:08;;;;;;;48.83;33.22;;;7.60;99.90;;;;;;4959764;28;20072;-56
2022/04/16 04:42:35;;;;;;;51.08;33.97;;;7.50;99.90;;;;;;4943584;28;20054;-54
2022/04/16 04:45:09;;;;;;;49.05;32.47;;;7.50;99.90;;;;;;4977852;28;20429;-55
2022/04/16 04:47:35;;;;;;;52.63;33.55;;;7.50;99.90;;;;;;4961446;28;20042;-56
2022/04/16 04:50:01;;;;;;;50.25;32.92;;;7.50;99.90;;;;;;4978574;28;20088;-56
2022/04/16 04:52:27;;;;;;;48.25;32.55;;;7.50;99.90;;;;;;4979711;28;20415;-56
2022/04/16 04:54:54;;;;;;;52.38;32.42;;;7.50;99.90;;;;;;4980441;28;20558;-55
2022/04/16 04:57:19;;;;;;;47.08;32.58;;;7.50;99.90;;;;;;4977601;28;20719;-56
2022/04/16 04:59:45;;;;;;;47.53;32.38;;;7.50;99.90;;;;;;4977342;28;20159;-55
2022/04/16 05:02:11;;;;;;;48.20;31.92;;;7.50;99.90;;;;;;4979794;28;20108;-53
2022/04/16 05:04:37;;;;;;;45.65;30.52;;;7.50;99.90;;;;;;4980465;28;20072;-55
2022/04/16 05:07:04;;;;;;;43.63;29.50;;;7.50;99.90;;;;;;4977060;28;20046;-57
2022/04/16 05:09:30;;;;;;;44.78;30.40;;;7.40;99.90;;;;;;4977146;28;20166;-55
2022/04/16 05:11:56;;;;;;;47.00;29.02;;;7.50;99.90;;;;;;4964199;28;20161;-55
2022/04/16 05:14:22;;;;;;;44.55;29.55;;;7.50;99.90;;;;;;4977995;28;20060;-55
2022/04/16 05:16:48;;;;;;;41.42;27.85;;;7.50;99.90;;;;;;4976079;28;20050;-54
2022/04/16 05:19:14;;;;;;;40.72;27.60;;;7.50;99.90;;;;;;4982362;28;20046;-55
2022/04/16 05:21:41;;;;;;;37.13;26.60;;;7.60;99.90;;;;;;4980461;28;20050;-56
2022/04/16 05:24:07;;;;;;;37.83;26.48;;;7.50;99.90;;;;;;4979095;28;20069;-53
2022/04/16 05:26:34;;;;;;;36.83;25.80;;;7.60;99.90;;;;;;4977978;28;20223;-58
2022/04/16 05:29:00;;;;;;;34.53;24.33;;;7.60;99.90;;;;;;4982151;28;20049;-56
2022/04/16 05:31:27;;;;;;;36.20;24.42;;;7.60;99.90;;;;;;4985142;28;20408;-56
2022/04/16 05:36:38;;;;;;;30.38;22.73;;;7.60;99.90;;;;;;4982915;28;20054;-57
2022/04/16 05:39:04;;;;;;;30.35;21.92;;;7.60;99.90;;;;;;4982344;28;20053;-55
2022/04/16 05:41:32;;;;;;;33.80;21.90;;;7.60;99.90;;;;;;4973158;28;20050;-56
2022/04/16 05:43:59;;;;;;;30.35;21.33;;;7.60;99.90;;;;;;4986867;28;20117;-57
2022/04/16 05:46:25;;;;;;;29.80;21.15;;;7.60;99.90;;;;;;4967572;28;20053;-57
2022/04/16 05:48:51;;;;;;;30.08;20.92;;;7.60;99.90;;;;;;4985706;28;20050;-57
2022/04/16 05:51:18;;;;;;;29.88;20.33;;;7.70;99.90;;;;;;4988520;28;20537;-56
2022/04/16 05:53:49;;;;;;;32.00;21.95;;;7.80;99.90;;;;;;4985772;28;20046;-56
2022/04/16 05:56:16;;;;;;;29.10;20.45;;;7.70;99.90;;;;;;4988041;28;20053;-57
2022/04/16 05:58:45;;;;;;;31.80;21.23;;;7.80;99.90;;;;;;4984663;28;20053;-54
2022/04/16 06:01:12;;;;;;;32.58;21.67;;;7.80;99.90;;;;;;4986905;28;20046;-54
2022/04/16 06:03:42;;;;;;;32.72;21.25;;;7.90;99.90;;;;;;4984179;28;20567;-55
2022/04/16 06:06:09;;;;;;;30.13;21.55;;;7.90;99.90;;;;;;4990396;28;20538;-55
2022/04/16 06:08:35;;;;;;;31.08;20.90;;;7.90;99.90;;;;;;4986380;28;20080;-56
2022/04/16 06:11:03;;;;;;;33.70;22.35;;;7.90;99.90;;;;;;4992599;28;20046;-55
2022/04/16 06:13:31;;;;;;;35.75;21.98;;;8.00;99.90;;;;;;4990389;28;20050;-55
2022/04/16 06:15:59;;;;;;;35.10;22.35;;;8.00;99.90;;;;;;4966253;28;20070;-57
2022/04/16 06:18:26;;;;;;;32.08;21.70;;;8.00;99.90;;;;;;4991227;28;20046;-54
2022/04/16 06:20:51;;;;;;;31.75;21.65;;;8.00;99.90;;;;;;4992570;28;20150;-56
2022/04/16 06:23:20;;;;;;;32.65;22.67;;;8.00;99.90;;;;;;4991274;28;20568;-57
2022/04/16 06:25:46;;;;;;;31.33;21.00;;;8.00;99.90;;;;;;4990504;28;20397;-55
2022/04/16 06:28:12;;;;;;;32.58;22.10;;;8.00;99.90;;;;;;4973586;28;20045;-55
2022/04/16 06:30:38;;;;;;;32.33;22.40;;;8.00;99.90;;;;;;4991105;28;20046;-56
2022/04/16 06:33:04;;;;;;;32.00;21.25;;;8.10;99.90;;;;;;4992344;28;20085;-55
2022/04/16 06:35:30;;;;;;;31.45;20.08;;;8.10;99.90;;;;;;4990484;28;20662;-55
2022/04/16 06:37:56;;;;;;;29.70;20.48;;;8.20;99.90;;;;;;4993820;28;20048;-56
2022/04/16 06:40:22;;;;;;;28.70;20.30;;;8.20;99.90;;;;;;4988327;28;20077;-55
2022/04/16 06:42:48;;;;;;;29.38;18.90;;;8.20;99.90;;;;;;4989130;28;20058;-56
2022/04/16 06:45:14;;;;;;;27.90;18.45;;;8.10;99.90;;;;;;4988774;28;20116;-55
2022/04/16 06:47:40;;;;;;;26.40;17.45;;;8.10;99.90;;;;;;4991669;28;20492;-55
2022/04/16 06:50:08;;;;;;;26.08;18.55;;;8.20;99.90;;;;;;4988640;28;20134;-55
2022/04/16 06:52:34;;;;;;;28.60;17.10;;;8.10;99.90;;;;;;4991169;28;20047;-54
2022/04/16 06:55:00;;;;;;;24.45;17.00;;;8.10;99.90;;;;;;4989404;28;20065;-56
2022/04/16 06:57:26;;;;;;;25.77;16.65;;;8.10;99.90;;;;;;4990794;28;20144;-56
2022/04/16 06:59:52;;;;;;;24.60;16.48;;;8.10;99.90;;;;;;4989230;28;20834;-55
2022/04/16 07:02:18;;;;;;;24.23;16.60;;;8.20;99.90;;;;;;4990411;28;20582;-56
2022/04/16 07:04:43;;;;;;;25.33;16.38;;;8.20;99.90;;;;;;4992439;28;20058;-55
2022/04/16 07:07:09;;;;;;;27.90;19.15;;;8.20;99.90;;;;;;4990011;28;20395;-55
2022/04/16 07:09:38;;;;;;;27.45;18.73;;;8.20;99.90;;;;;;4990043;28;20041;-56
2022/04/16 07:12:09;;;;;;;28.10;18.20;;;8.30;99.90;;;;;;4987137;28;20050;-55
2022/04/16 07:14:39;;;;;;;29.20;19.40;;;8.30;99.90;;;;;;4986513;28;20043;-56
2022/04/16 07:17:06;;;;;;;27.80;17.90;;;8.40;99.90;;;;;;4989448;28;20046;-55
2022/04/16 07:19:33;;;;;;;29.27;18.17;;;8.50;99.90;;;;;;4984665;28;20685;-55
2022/04/16 07:21:59;;;;;;;27.92;18.13;;;8.60;99.90;;;;;;4986507;28;20731;-55
2022/04/16 07:24:25;;;;;;;28.13;18.20;;;8.60;99.90;;;;;;4984782;28;20133;-56
2022/04/16 07:26:55;;;;;;;27.80;17.27;;;8.70;99.90;;;;;;4985637;28;20046;-56
2022/04/16 07:29:22;;;;;;;26.60;18.10;;;8.70;99.90;;;;;;4989526;28;20056;-56
2022/04/16 07:31:48;;;;;;;25.77;17.13;;;8.80;99.90;;;;;;4984977;28;20120;-56
2022/04/16 07:34:14;;;;;;;28.48;16.85;;;8.90;99.90;;;;;;4986869;28;20057;-56
2022/04/16 07:36:44;;;;;;;24.75;16.45;;;9.00;99.90;;;;;;4970090;28;20054;-55
2022/04/16 07:39:10;;;;;;;21.55;15.23;;;9.10;99.90;;;;;;4984602;28;20050;-57
2022/04/16 07:41:36;;;;;;;23.73;15.50;;;9.20;99.90;;;;;;4986377;28;20057;-54
2022/04/16 07:44:05;;;;;;;22.73;15.07;;;9.30;99.90;;;;;;4985540;28;20050;-54
2022/04/16 07:46:33;;;;;;;24.77;14.75;;;9.30;99.90;;;;;;4985456;28;20121;-54
2022/04/16 07:48:59;;;;;;;20.50;14.40;;;9.40;99.90;;;;;;4978699;28;20046;-55
2022/04/16 07:51:26;;;;;;;23.38;14.27;;;9.50;99.90;;;;;;4978339;28;20046;-56
2022/04/16 07:53:53;;;;;;;20.75;14.13;;;9.60;99.90;;;;;;4979687;28;20155;-55
2022/04/16 07:56:19;;;;;;;20.60;13.75;;;9.70;99.90;;;;;;4976769;28;20744;-55
2022/04/16 07:58:45;;;;;;;19.23;13.15;;;9.80;99.90;;;;;;4978507;28;20203;-53
2022/04/16 08:01:12;;;;;;;18.15;12.25;;;9.90;99.90;;;;;;4980587;28;20065;-54
2022/04/16 08:03:38;;;;;;;17.80;11.65;;;10.00;99.90;;;;;;4970543;28;20076;-56
2022/04/16 08:06:04;;;;;;;26.95;12.55;;;10.10;99.90;;;;;;4966691;28;20046;-55
2022/04/16 08:08:30;;;;;;;17.85;11.18;;;10.20;99.90;;;;;;4963724;28;20049;-56
2022/04/16 08:10:58;;;;;;;18.02;11.57;;;10.30;99.90;;;;;;4982588;28;20057;-57
2022/04/16 08:13:24;;;;;;;19.38;10.98;;;10.30;99.90;;;;;;4983007;28;20817;-56
2022/04/16 08:15:51;;;;;;;15.90;11.02;;;10.40;99.90;;;;;;4983456;28;20420;-56
2022/04/16 08:18:17;;;;;;;14.30;9.98;;;10.30;99.90;;;;;;4987069;28;20085;-57
2022/04/16 08:20:43;;;;;;;14.65;9.80;;;10.30;99.90;;;;;;4983937;28;20042;-56
2022/04/16 08:23:09;;;;;;;15.30;9.52;;;10.30;99.90;;;;;;4981508;28;20054;-56
2022/04/16 08:28:03;;;;;;;17.48;10.50;;;10.40;99.90;;;;;;4981399;28;20054;-57
2022/04/16 08:30:30;;;;;;;12.05;9.13;;;10.50;99.90;;;;;;4982416;28;20140;-55
2022/04/16 08:32:56;;;;;;;9.98;7.30;;;10.60;99.90;;;;;;4970383;28;20045;-56
2022/04/16 08:35:22;;;;;;;9.77;7.45;;;10.70;99.90;;;;;;4962556;28;20108;-57
2022/04/16 08:37:50;;;;;;;10.88;6.85;;;10.80;99.90;;;;;;4983104;28;20124;-56
2022/04/16 08:40:17;;;;;;;12.68;8.13;;;11.00;99.90;;;;;;4980564;28;20239;-56
2022/04/16 08:42:45;;;;;;;11.32;8.25;;;11.10;99.90;;;;;;4959134;28;20051;-56
2022/04/16 08:45:12;;;;;;;11.02;7.70;;;11.20;99.90;;;;;;4983894;28;20050;-54
2022/04/16 08:47:39;;;;;;;10.82;6.88;;;11.30;99.90;;;;;;4988354;28;20042;-55
2022/04/16 08:50:07;;;;;;;12.27;7.82;;;11.40;99.90;;;;;;4988446;28;20454;-57
2022/04/16 08:52:36;;;;;;;10.68;6.88;;;11.50;99.90;;;;;;4968654;28;20485;-56
2022/04/16 08:55:05;;;;;;;8.77;5.93;;;11.70;99.90;;;;;;4986100;28;20085;-56
2022/04/16 08:57:31;;;;;;;7.57;4.88;;;11.70;99.90;;;;;;4986467;28;20046;-55
2022/04/16 08:59:57;;;;;;;5.65;3.67;;;11.80;99.30;;;;;;4957618;28;20072;-56
2022/04/16 09:02:25;;;;;;;4.45;3.15;;;11.90;98.40;;;;;;4980056;28;20051;-55
2022/04/16 09:05:11;;;;;;;6.40;3.03;;;12.00;96.20;;;;;;4982671;28;20503;-56
2022/04/16 09:07:55;;;;;;;4.85;2.70;;;12.00;93.90;;;;;;4988189;28;20124;-56
2022/04/16 09:10:27;;;;;;;7.18;2.95;;;12.00;90.90;;;;;;4988117;28;20046;-56
2022/04/16 09:12:56;;;;;;;2.63;2.10;;;12.00;86.90;;;;;;4979880;28;20483;-57
2022/04/16 09:15:23;;;;;;;3.42;2.55;;;12.00;83.80;;;;;;4989027;28;20046;-56
2022/04/16 09:18:17;;;;;;;2.80;2.17;;;12.00;81.80;;;;;;4972132;28;20048;-58
2022/04/16 09:20:43;;;;;;;3.67;2.35;;;12.10;84.00;;;;;;4989145;28;20053;-55
2022/04/16 09:23:22;;;;;;;3.58;2.33;;;12.30;82.00;;;;;;4989562;28;20054;-55
2022/04/16 09:25:49;;;;;;;4.63;2.42;;;12.40;79.30;;;;;;4989926;28;20492;-56
2022/04/16 09:28:17;;;;;;;2.95;2.45;;;12.50;79.60;;;;;;4989220;28;20536;-55
2022/04/16 09:30:56;;;;;;;4.22;2.28;;;12.60;78.80;;;;;;4988438;28;20053;-56
2022/04/16 09:33:22;;;;;;;4.82;2.20;;;12.60;75.80;;;;;;4988452;28;20050;-55
2022/04/16 09:35:55;;;;;;;5.47;2.20;;;12.70;76.50;;;;;;4988050;28;20053;-56
2022/04/16 09:38:20;;;;;;;2.65;1.95;;;12.70;74.30;;;;;;4991006;28;20399;-55
2022/04/16 09:40:48;;;;;;;1.83;1.55;;;12.80;74.00;;;;;;4993956;28;20042;-56
2022/04/16 09:43:14;;;;;;;4.45;1.50;;;12.90;73.70;;;;;;4992787;28;20112;-57
2022/04/16 09:45:41;;;;;;;3.05;1.17;;;13.00;72.40;;;;;;4967636;28;20050;-53
2022/04/16 09:48:11;;;;;;;1.60;1.02;;;13.20;69.70;;;;;;4972896;28;20439;-55
2022/04/16 09:50:39;;;;;;;2.20;1.20;;;13.30;67.40;;;;;;4973858;28;20046;-56
2022/04/16 09:53:06;;;;;;;1.58;1.10;;;13.30;68.00;;;;;;4976463;28;20137;-57
2022/04/16 09:55:32;;;;;;;4.20;1.13;;;13.40;66.20;;;;;;4992696;28;20046;-56
2022/04/16 09:58:01;;;;;;;1.55;1.10;;;13.50;65.30;;;;;;4968085;28;20051;-58
2022/04/16 10:00:28;;;;;;;2.22;1.30;;;13.50;63.80;;;;;;4991757;28;20046;-57
2022/04/16 10:02:54;;;;;;;1.42;1.10;;;13.60;64.70;;;;;;4991502;28;20050;-56
2022/04/16 10:05:22;;;;;;;6.13;1.33;;;13.70;64.60;;;;;;4974872;28;20046;-56
2022/04/16 10:07:49;;;;;;;24.45;16.13;;;13.80;64.40;;;;;;4975173;28;20046;-56
2022/04/16 10:10:18;;;;;;;25.60;14.80;;;13.90;63.00;;;;;;4983333;28;20046;-57
2022/04/16 10:13:05;;;;;;;1.60;1.30;;;14.00;63.30;;;;;;4968445;28;20547;-56
2022/04/16 10:15:52;;;;;;;2.10;1.90;;;14.10;61.50;;;;;;4982301;28;20054;-57
2022/04/16 10:18:18;;;;;;;2.33;1.67;;;14.20;61.90;;;;;;4983442;28;20046;-58
2022/04/16 10:20:51;;;;;;;18.50;12.13;;;14.30;61.30;;;;;;4982991;28;20492;-57
2022/04/16 10:23:28;;;;;;;8.23;5.60;;;14.30;61.50;;;;;;4991409;28;20058;-57
2022/04/16 10:26:03;;;;;;;2.17;1.40;;;14.40;61.80;;;;;;4991652;28;20141;-57
2022/04/16 10:28:51;;;;;;;2.70;2.30;;;14.50;60.60;;;;;;4992662;28;20092;-57
2022/04/16 10:31:30;;;;;;;4.15;2.20;;;14.60;60.20;;;;;;4991167;28;20060;-57
2022/04/16 10:33:59;;;;;;;1.55;1.02;;;14.70;60.20;;;;;;4975010;28;20052;-56
2022/04/16 10:36:36;;;;;;;3.28;1.50;;;14.80;58.50;;;;;;4992548;28;20436;-57
2022/04/16 10:39:16;;;;;;;2.60;1.60;;;14.90;58.40;;;;;;4977151;28;20046;-56
2022/04/16 10:41:56;;;;;;;2.17;1.60;;;14.90;58.20;;;;;;4989885;28;20046;-57
2022/04/16 10:44:23;;;;;;;5.68;1.50;;;15.00;58.40;;;;;;4991714;28;20141;-57
2022/04/16 10:46:50;;;;;;;2.17;1.10;;;15.00;58.20;;;;;;4991348;28;20053;-57
2022/04/16 10:49:22;;;;;;;1.52;1.20;;;15.10;57.50;;;;;;4991866;28;20421;-57
2022/04/16 10:51:50;;;;;;;7.03;1.40;;;15.10;56.70;;;;;;4991014;28;20042;-57
2022/04/16 10:54:32;;;;;;;1.33;1.17;;;15.20;57.30;;;;;;4993851;28;20052;-58
2022/04/16 10:56:58;;;;;;;3.83;1.13;;;15.30;57.00;;;;;;4992425;28;20049;-57
2022/04/16 10:59:42;;;;;;;2.72;1.10;;;15.40;57.20;;;;;;4990046;28;20089;-58
2022/04/16 11:02:28;;;;;;;1.65;1.30;;;15.60;57.10;;;;;;4982481;28;20133;-58
2022/04/16 11:05:06;;;;;;;1.90;1.30;;;15.70;55.40;;;;;;4990840;28;20112;-57
2022/04/16 11:07:35;;;;;;;4.60;0.95;;;15.80;56.20;;;;;;4992772;28;20049;-58
2022/04/16 11:10:06;;;;;;;1.65;1.10;;;15.90;55.50;;;;;;4982751;28;20080;-56
2022/04/16 11:12:32;;;;;;;2.92;1.02;;;16.00;55.40;;;;;;4991427;28;20048;-57
2022/04/16 11:14:59;;;;;;;1.33;0.90;;;16.10;54.10;;;;;;4981125;28;20038;-56
2022/04/16 11:17:25;;;;;;;2.10;1.20;;;16.10;55.00;;;;;;4993275;28;20049;-57
2022/04/16 11:20:02;;;;;;;2.85;1.00;;;16.20;54.70;;;;;;4972768;28;20058;-56
2022/04/16 11:22:29;;;;;;;2.00;1.10;;;16.30;52.70;;;;;;4990437;28;20056;-55
2022/04/16 11:24:55;;;;;;;3.20;1.17;;;16.20;52.60;;;;;;4991063;28;20062;-58
2022/04/16 11:36:02;;;;;;;1.85;0.90;;;16.40;52.10;;;;;;4977988;28;20039;-58
2022/04/16 11:38:32;;;;;;;2.28;0.93;;;16.50;51.30;;;;;;4993117;28;20647;-58
2022/04/16 11:41:04;;;;;;;1.85;0.90;;;16.60;50.70;;;;;;4975685;28;20065;-58
2022/04/16 11:43:31;;;;;;;2.08;1.10;;;16.50;50.10;;;;;;4989642;28;20468;-59
2022/04/16 11:45:59;;;;;;;2.72;1.10;;;16.50;49.70;;;;;;4990502;28;20493;-59
2022/04/16 11:48:25;;;;;;;1.77;1.17;;;16.60;50.80;;;;;;4989255;28;20053;-58
2022/04/16 11:50:51;;;;;;;3.95;1.20;;;16.70;51.20;;;;;;4991220;28;20496;-57
2022/04/16 11:53:17;;;;;;;2.50;1.10;;;16.80;50.50;;;;;;4970663;28;20049;-58
2022/04/16 11:55:47;;;;;;;2.08;1.10;;;16.90;50.40;;;;;;4990223;28;20052;-57
2022/04/16 11:58:13;;;;;;;1.73;1.10;;;17.00;50.20;;;;;;4972901;28;20042;-58
2022/04/16 12:00:49;;;;;;;3.40;1.40;;;17.20;50.00;;;;;;4990760;28;20046;-56
2022/04/16 12:03:15;;;;;;;2.35;1.20;;;17.20;49.80;;;;;;4980682;28;20065;-58
2022/04/16 12:05:47;;;;;;;1.80;1.20;;;17.30;49.20;;;;;;4991022;28;20054;-57
2022/04/16 12:08:14;;;;;;;7.72;1.40;;;17.40;49.80;;;;;;4977509;28;20412;-56
2022/04/16 12:10:44;;;;;;;1.52;1.02;;;17.50;49.00;;;;;;4980164;28;20617;-57
2022/04/16 12:13:12;;;;;;;2.50;1.10;;;17.50;49.50;;;;;;4990372;28;20061;-58
2022/04/16 12:15:45;;;;;;;2.22;1.20;;;17.70;49.40;;;;;;4989584;28;20522;-58
2022/04/16 12:18:23;;;;;;;;;;;17.80;47.80;;;;;;4990369;28;20500;-58
2022/04/16 12:20:49;;;;;;;4.55;1.00;;;17.90;48.40;;;;;;4990687;28;19928;-56
2022/04/16 12:23:25;;;;;;;1.60;1.23;;;18.00;49.30;;;;;;4988929;28;20046;-58
2022/04/16 12:26:08;;;;;;;5.35;1.05;;;18.20;47.10;;;;;;4974267;28;20050;-58
2022/04/16 12:28:39;;;;;;;2.28;1.10;;;18.40;48.60;;;;;;4969896;28;20046;-56
2022/04/16 12:31:05;;;;;;;1.00;1.00;;;18.60;48.10;;;;;;4989159;28;20483;-57
2022/04/16 12:33:31;;;;;;;1.35;1.20;;;18.60;48.00;;;;;;4992441;28;20104;-58
2022/04/16 12:35:59;;;;;;;1.95;1.20;;;18.80;47.10;;;;;;4981279;28;20046;-59
2022/04/16 12:38:25;;;;;;;2.03;1.20;;;18.80;47.20;;;;;;4965810;28;20053;-57
2022/04/16 12:41:02;;;;;;;3.58;1.10;;;18.80;45.90;;;;;;4989455;28;20181;-58
2022/04/16 12:43:29;;;;;;;14.70;2.45;;;18.70;45.60;;;;;;4990054;28;20041;-57
2022/04/16 12:45:54;;;;;;;3.13;1.20;;;18.70;46.10;;;;;;4990333;28;20050;-57
2022/04/16 12:48:20;;;;;;;4.43;1.30;;;18.80;45.50;;;;;;4991211;28;20076;-58
2022/04/16 12:50:46;;;;;;;1.73;1.20;;;18.80;46.20;;;;;;4988121;28;20042;-58
2022/04/16 12:53:12;;;;;;;3.20;1.45;;;18.80;46.30;;;;;;4990430;28;20052;-57
2022/04/16 12:55:37;;;;;;;1.42;1.33;;;18.80;45.90;;;;;;4990174;28;20351;-57
2022/04/16 12:58:03;;;;;;;1.40;1.20;;;18.80;45.60;;;;;;4989176;28;20204;-58
2022/04/16 13:00:31;;;;;;;3.70;1.17;;;18.90;45.80;;;;;;4988490;28;20125;-57
2022/04/16 13:02:59;;;;;;;4.78;1.33;;;19.00;45.90;;;;;;4968834;28;20046;-58
2022/04/16 13:05:26;;;;;;;4.22;1.33;;;19.00;46.00;;;;;;4990263;28;20049;-57